Time;durP1;ratioP1;P1;durP2;ratioP2;P2;SDS_P1;SDS_P2;PMS_P1;PMS_P2;Temp;Humidity;BMP_temperature;BMP_pressure;BME280_temperature;BME280_humidity;BME280_pressure;Samples;Min_cycle;Max_cycle;Signal;HPM_P1;HPM_P2
2022/11/03 00:01:54;;;;;;;9.18;3.45;;;11.50;99.90;;;;;;5015751;28;20470;-67
2022/11/03 00:04:21;;;;;;;9.25;2.53;;;11.50;99.90;;;;;;5016029;28;20048;-67
2022/11/03 00:06:49;;;;;;;9.48;2.33;;;11.50;99.90;;;;;;4998363;28;20128;-67
2022/11/03 00:09:17;;;;;;;14.85;2.70;;;11.50;99.90;;;;;;5015763;28;20494;-67
2022/11/03 00:11:44;;;;;;;16.35;3.58;;;11.50;99.90;;;;;;5033518;28;20067;-67
2022/11/03 00:14:11;;;;;;;11.85;3.75;;;11.50;99.90;;;;;;5015073;28;20083;-67
2022/11/03 00:16:38;;;;;;;20.73;4.75;;;11.50;99.90;;;;;;4999496;28;20038;-67
2022/11/03 00:19:05;;;;;;;14.88;3.15;;;11.50;99.90;;;;;;5015407;28;20045;-66
2022/11/03 00:21:31;;;;;;;10.85;4.05;;;11.50;99.90;;;;;;4998753;28;20045;-67
2022/11/03 00:23:57;;;;;;;12.00;2.58;;;11.40;99.90;;;;;;5015070;28;20132;-67
2022/11/03 00:26:25;;;;;;;14.15;3.42;;;11.40;99.90;;;;;;4999496;28;20045;-67
2022/11/03 00:28:56;;;;;;;12.60;3.03;;;11.40;99.90;;;;;;5014301;28;20490;-67
2022/11/03 00:31:24;;;;;;;15.38;3.90;;;11.40;99.90;;;;;;4998382;28;20045;-67
2022/11/03 00:33:50;;;;;;;16.98;3.85;;;11.40;99.90;;;;;;5014851;28;20037;-68
2022/11/03 00:36:24;;;;;;;12.20;3.13;;;11.40;99.90;;;;;;5015035;28;20045;-67
2022/11/03 00:38:50;;;;;;;11.70;2.95;;;11.40;99.90;;;;;;5015172;28;20486;-67
2022/11/03 00:41:19;;;;;;;14.27;4.10;;;11.40;99.90;;;;;;5033014;28;20494;-67
2022/11/03 00:43:44;;;;;;;7.45;2.78;;;11.40;99.90;;;;;;5014080;28;20452;-67
2022/11/03 00:46:10;;;;;;;16.33;3.35;;;11.40;99.90;;;;;;5015482;28;20037;-67
2022/11/03 00:48:36;;;;;;;8.63;3.22;;;11.40;99.90;;;;;;5032051;28;20041;-67
2022/11/03 00:51:14;;;;;;;11.95;3.00;;;11.30;99.90;;;;;;5015180;28;20091;-67
2022/11/03 00:53:42;;;;;;;10.75;3.17;;;11.30;99.90;;;;;;5032806;28;20072;-67
2022/11/03 00:56:27;;;;;;;12.95;3.97;;;11.30;99.90;;;;;;5031687;28;20091;-67
2022/11/03 00:58:54;;;;;;;14.55;3.95;;;11.30;99.90;;;;;;5014698;28;20081;-66
2022/11/03 01:01:22;;;;;;;11.05;3.20;;;11.20;99.90;;;;;;5014858;28;20525;-67
2022/11/03 01:06:49;;;;;;;14.10;4.03;;;11.20;99.90;;;;;;5014581;28;20087;-67
2022/11/03 01:09:20;;;;;;;12.23;2.88;;;11.20;99.90;;;;;;5032528;28;20041;-68
2022/11/03 01:12:17;;;;;;;14.38;3.80;;;11.20;99.90;;;;;;5013761;28;20095;-67
2022/11/03 01:14:51;;;;;;;9.60;3.05;;;11.20;99.90;;;;;;4982667;28;20108;-67
2022/11/03 01:17:19;;;;;;;21.13;4.03;;;11.20;99.90;;;;;;5013911;28;20068;-67
2022/11/03 01:19:45;;;;;;;8.05;2.53;;;11.20;99.90;;;;;;5031906;28;20050;-67
2022/11/03 01:22:11;;;;;;;9.23;3.10;;;11.20;99.90;;;;;;5014862;28;20041;-67
2022/11/03 01:24:40;;;;;;;10.13;3.42;;;11.20;99.90;;;;;;5031257;28;20049;-67
2022/11/03 01:27:07;;;;;;;9.60;3.05;;;11.20;99.90;;;;;;5014579;28;20048;-67
2022/11/03 01:29:32;;;;;;;10.80;3.67;;;11.10;99.90;;;;;;5014243;28;20125;-67
2022/11/03 01:31:58;;;;;;;11.13;3.08;;;11.10;99.90;;;;;;5013645;28;20124;-67
2022/11/03 01:34:24;;;;;;;12.77;2.90;;;11.10;99.90;;;;;;5032450;28;20045;-67
2022/11/03 01:36:50;;;;;;;9.88;3.05;;;11.10;99.90;;;;;;5014134;28;20029;-67
2022/11/03 01:39:19;;;;;;;13.30;3.88;;;11.10;99.90;;;;;;5031894;28;20095;-67
2022/11/03 01:41:47;;;;;;;12.32;3.13;;;11.10;99.90;;;;;;5013853;28;20053;-67
2022/11/03 01:44:13;;;;;;;9.75;3.72;;;11.00;99.90;;;;;;5014059;28;20033;-67
2022/11/03 01:46:50;;;;;;;8.45;2.20;;;11.00;99.90;;;;;;5031280;28;20544;-67
2022/11/03 01:49:24;;;;;;;11.50;3.33;;;11.10;99.90;;;;;;5032223;28;20052;-66
2022/11/03 01:51:56;;;;;;;12.95;3.00;;;11.10;99.90;;;;;;5031304;28;20111;-67
2022/11/03 01:54:24;;;;;;;10.48;3.50;;;11.10;99.90;;;;;;4998400;28;20546;-67
2022/11/03 01:56:51;;;;;;;16.05;3.45;;;11.10;99.90;;;;;;5031443;28;20091;-66
2022/11/03 01:59:19;;;;;;;10.10;3.22;;;11.10;99.90;;;;;;5031172;28;20129;-66
2022/11/03 02:01:46;;;;;;;11.60;3.33;;;11.00;99.90;;;;;;5013762;28;20053;-65
2022/11/03 02:04:25;;;;;;;11.68;2.80;;;11.10;99.90;;;;;;4998054;28;20049;-66
2022/11/03 02:07:04;;;;;;;13.55;3.35;;;11.10;99.90;;;;;;5012940;28;20041;-66
2022/11/03 02:09:30;;;;;;;10.65;2.95;;;11.00;99.90;;;;;;5032206;28;20048;-65
2022/11/03 02:12:05;;;;;;;9.40;2.70;;;11.00;99.90;;;;;;5013950;28;20471;-66
2022/11/03 02:14:31;;;;;;;11.63;3.33;;;11.00;99.90;;;;;;5031665;28;20073;-65
2022/11/03 02:17:02;;;;;;;13.32;3.42;;;11.00;99.90;;;;;;5031423;28;20041;-65
2022/11/03 02:19:37;;;;;;;13.48;3.58;;;11.10;99.90;;;;;;4997843;28;20043;-65
2022/11/03 02:22:15;;;;;;;10.25;3.55;;;11.00;99.90;;;;;;5030837;28;20037;-66
2022/11/03 02:25:09;;;;;;;16.33;3.42;;;11.00;99.90;;;;;;5010566;28;20142;-66
2022/11/03 02:27:35;;;;;;;13.32;4.07;;;11.00;99.90;;;;;;4983155;28;20061;-66
2022/11/03 02:30:00;;;;;;;17.75;3.90;;;11.00;99.90;;;;;;5010518;28;20053;-65
2022/11/03 02:32:41;;;;;;;13.10;3.15;;;10.90;99.90;;;;;;5011092;28;20048;-65
2022/11/03 02:35:27;;;;;;;14.32;3.28;;;10.90;99.90;;;;;;4993796;28;20045;-66
2022/11/03 02:37:56;;;;;;;15.63;4.03;;;10.80;99.90;;;;;;5011450;28;20045;-66
2022/11/03 02:40:33;;;;;;;9.90;3.85;;;10.80;99.90;;;;;;5010860;28;20518;-66
2022/11/03 02:43:00;;;;;;;9.30;3.20;;;10.80;99.90;;;;;;5011073;28;20392;-65
2022/11/03 02:45:27;;;;;;;19.75;3.08;;;10.70;99.90;;;;;;5010602;28;20509;-66
2022/11/03 02:47:57;;;;;;;10.13;2.97;;;10.70;99.90;;;;;;5011514;28;20088;-65
2022/11/03 02:50:31;;;;;;;11.20;3.15;;;10.70;99.90;;;;;;5009870;28;20042;-65
2022/11/03 02:52:57;;;;;;;11.68;3.28;;;10.70;99.90;;;;;;5010246;28;20045;-66
2022/11/03 02:55:41;;;;;;;12.27;3.28;;;10.60;99.90;;;;;;4995414;28;20041;-66
2022/11/03 02:58:33;;;;;;;12.23;3.42;;;10.60;99.90;;;;;;5013904;28;20076;-66
2022/11/03 03:01:13;;;;;;;12.30;3.53;;;10.60;99.90;;;;;;5013651;28;20120;-66
2022/11/03 03:03:56;;;;;;;10.23;2.80;;;10.60;99.90;;;;;;5012870;28;20037;-65
2022/11/03 03:06:29;;;;;;;12.75;4.53;;;10.60;99.90;;;;;;5015327;28;20454;-66
2022/11/03 03:09:02;;;;;;;12.70;3.53;;;10.60;99.90;;;;;;5014463;28;20069;-65
2022/11/03 03:11:37;;;;;;;13.02;3.28;;;10.60;99.90;;;;;;5014365;28;20042;-65
2022/11/03 03:14:28;;;;;;;12.85;3.63;;;10.60;99.90;;;;;;4997186;28;20837;-65
2022/11/03 03:16:58;;;;;;;11.02;2.67;;;10.60;99.90;;;;;;5005832;28;20057;-66
2022/11/03 03:20:00;;;;;;;10.88;2.63;;;10.70;99.90;;;;;;4997635;28;20050;-66
2022/11/03 03:22:31;;;;;;;11.60;3.17;;;10.70;99.90;;;;;;5003285;28;20062;-66
2022/11/03 03:25:13;;;;;;;11.02;3.50;;;10.70;99.90;;;;;;5015584;28;20049;-65
2022/11/03 03:27:44;;;;;;;14.32;3.92;;;10.70;99.90;;;;;;5016430;28;20049;-66
2022/11/03 03:30:11;;;;;;;12.35;2.65;;;10.70;99.90;;;;;;5034261;28;20494;-66
2022/11/03 03:32:42;;;;;;;14.40;3.47;;;10.80;99.90;;;;;;5033687;28;20128;-65
2022/11/03 03:35:12;;;;;;;9.82;3.13;;;10.80;99.90;;;;;;5034118;28;20045;-65
2022/11/03 03:37:41;;;;;;;10.60;2.92;;;10.80;99.90;;;;;;5033236;28;20483;-65
2022/11/03 03:40:10;;;;;;;14.38;3.17;;;10.80;99.90;;;;;;5033948;28;20117;-65
2022/11/03 03:42:38;;;;;;;9.38;3.47;;;10.80;99.90;;;;;;5033923;28;20096;-66
2022/11/03 03:45:06;;;;;;;11.77;3.22;;;10.80;99.90;;;;;;5033107;28;20041;-66
2022/11/03 03:47:33;;;;;;;14.50;3.22;;;10.90;99.90;;;;;;5000131;28;20045;-65
2022/11/03 03:50:00;;;;;;;9.02;3.65;;;10.90;99.90;;;;;;5033904;28;20038;-66
2022/11/03 03:52:26;;;;;;;17.88;4.60;;;10.90;99.90;;;;;;5033381;28;20029;-65
2022/11/03 03:54:53;;;;;;;13.90;3.70;;;10.90;99.90;;;;;;5033454;28;20049;-66
2022/11/03 03:57:21;;;;;;;10.35;3.05;;;10.90;99.90;;;;;;5016308;28;20046;-66
2022/11/03 03:59:47;;;;;;;10.30;3.50;;;10.90;99.90;;;;;;4998496;28;20520;-65
2022/11/03 04:02:13;;;;;;;9.77;2.90;;;10.90;99.90;;;;;;5033777;28;20116;-65
2022/11/03 04:04:39;;;;;;;10.48;3.38;;;10.90;99.90;;;;;;5015941;28;20048;-66
2022/11/03 04:09:50;;;;;;;;;;;10.80;99.90;;;;;;5015631;28;20132;-65
2022/11/03 04:23:15;;;;;;;14.32;3.25;;;10.80;99.90;;;;;;5012314;28;20061;-66
2022/11/03 04:25:46;;;;;;;12.15;3.50;;;10.80;99.90;;;;;;4995933;28;20041;-65
2022/11/03 04:28:14;;;;;;;12.02;3.45;;;10.80;99.90;;;;;;5012814;28;20046;-66
2022/11/03 04:30:40;;;;;;;13.98;3.78;;;10.80;99.90;;;;;;5013274;28;20049;-65
2022/11/03 04:33:17;;;;;;;10.82;3.13;;;10.80;99.90;;;;;;5013179;28;20041;-66
2022/11/03 04:35:43;;;;;;;10.63;3.50;;;10.70;99.90;;;;;;5011662;28;20487;-66
2022/11/03 04:38:29;;;;;;;10.93;3.15;;;10.70;99.90;;;;;;4995581;28;20077;-66
2022/11/03 04:40:58;;;;;;;16.40;3.42;;;10.60;99.90;;;;;;5010508;28;20100;-66
2022/11/03 04:43:34;;;;;;;10.65;3.63;;;10.60;99.90;;;;;;5012031;28;20038;-65
2022/11/03 04:46:01;;;;;;;10.95;3.25;;;10.60;99.90;;;;;;5012096;28;20443;-66
2022/11/03 04:48:28;;;;;;;11.98;3.83;;;10.50;99.90;;;;;;5011325;28;20172;-66
2022/11/03 04:50:57;;;;;;;15.13;4.53;;;10.50;99.90;;;;;;5012636;28;20141;-66
2022/11/03 04:53:23;;;;;;;13.02;3.47;;;10.50;99.90;;;;;;5012186;28;20144;-66
2022/11/03 04:55:53;;;;;;;14.00;4.55;;;10.50;99.90;;;;;;5010760;28;20340;-65
2022/11/03 04:58:28;;;;;;;13.80;4.22;;;10.40;99.90;;;;;;5013352;28;20096;-65
2022/11/03 05:00:57;;;;;;;12.52;3.33;;;10.40;99.90;;;;;;5011269;28;20073;-65
2022/11/03 05:03:27;;;;;;;9.93;3.65;;;10.40;99.90;;;;;;5012241;28;20491;-66
2022/11/03 05:05:53;;;;;;;12.63;3.60;;;10.40;99.90;;;;;;4994756;28;20050;-65
2022/11/03 05:08:19;;;;;;;10.05;2.70;;;10.40;99.90;;;;;;5012844;28;20042;-65
2022/11/03 05:10:46;;;;;;;16.80;3.92;;;10.40;99.90;;;;;;5011727;28;20038;-65
2022/11/03 05:13:30;;;;;;;16.05;4.35;;;10.40;99.90;;;;;;5012863;28;20042;-65
2022/11/03 05:16:02;;;;;;;16.05;4.07;;;10.40;99.90;;;;;;5010535;28;20045;-65
2022/11/03 05:18:39;;;;;;;11.90;3.47;;;10.40;99.90;;;;;;4994749;28;20038;-65
2022/11/03 05:21:08;;;;;;;17.67;3.50;;;10.40;99.90;;;;;;5012795;28;20049;-65
2022/11/03 05:24:01;;;;;;;12.27;4.30;;;10.40;99.90;;;;;;5021903;28;20563;-66
2022/11/03 05:26:33;;;;;;;8.50;3.53;;;10.40;99.90;;;;;;4995356;28;20077;-66
2022/11/03 05:29:12;;;;;;;13.27;3.78;;;10.40;99.90;;;;;;5031955;28;20045;-65
2022/11/03 05:31:41;;;;;;;9.00;3.13;;;10.40;99.90;;;;;;5013540;28;20479;-66
2022/11/03 05:34:29;;;;;;;13.88;3.28;;;10.40;99.90;;;;;;5032173;28;20029;-65
2022/11/03 05:36:58;;;;;;;11.23;3.47;;;10.40;99.90;;;;;;4985075;28;20502;-65
2022/11/03 05:39:30;;;;;;;10.25;3.13;;;10.40;99.90;;;;;;5032117;28;20052;-66
2022/11/03 05:41:58;;;;;;;10.75;3.15;;;10.40;99.90;;;;;;5031848;28;20045;-65
2022/11/03 05:44:32;;;;;;;8.25;3.08;;;10.40;99.90;;;;;;5013737;28;20049;-66
2022/11/03 05:46:59;;;;;;;11.70;3.67;;;10.50;99.90;;;;;;5014168;28;20052;-65
2022/11/03 05:49:27;;;;;;;12.50;3.55;;;10.50;99.90;;;;;;5032167;28;20045;-66
2022/11/03 05:51:52;;;;;;;10.35;3.08;;;10.50;99.90;;;;;;5030612;28;20047;-66
2022/11/03 05:54:27;;;;;;;11.73;2.60;;;10.50;99.90;;;;;;5014661;28;20394;-66
2022/11/03 05:56:55;;;;;;;;;;;10.50;99.90;;;;;;5014338;28;20048;-65
2022/11/03 05:59:25;;;;;;;14.27;3.47;;;10.50;99.90;;;;;;5013667;28;19924;-66
2022/11/03 06:01:52;;;;;;;12.25;3.60;;;10.50;99.90;;;;;;4997679;28;20052;-65
2022/11/03 06:04:28;;;;;;;10.95;3.20;;;10.60;99.90;;;;;;5014455;28;20052;-66
2022/11/03 06:07:30;;;;;;;13.32;3.67;;;10.60;99.90;;;;;;5030557;28;20560;-66
2022/11/03 06:09:57;;;;;;;12.07;3.65;;;10.60;99.90;;;;;;5031537;28;20049;-65
2022/11/03 06:12:23;;;;;;;10.32;3.28;;;10.60;99.90;;;;;;5031362;28;20046;-66
2022/11/03 06:14:51;;;;;;;12.25;3.50;;;10.70;99.90;;;;;;5031496;28;20049;-65
2022/11/03 06:17:26;;;;;;;11.82;3.35;;;10.70;99.90;;;;;;5031882;28;20107;-65
2022/11/03 06:19:54;;;;;;;9.98;3.75;;;10.70;99.90;;;;;;5030713;28;20096;-66
2022/11/03 06:22:29;;;;;;;12.38;4.25;;;10.80;99.90;;;;;;5014104;28;20051;-66
2022/11/03 06:24:59;;;;;;;13.95;2.90;;;10.80;99.90;;;;;;5013597;28;20107;-66
2022/11/03 06:27:27;;;;;;;12.00;3.78;;;10.80;99.90;;;;;;5031020;28;20045;-66
2022/11/03 06:29:58;;;;;;;11.98;3.40;;;10.80;99.90;;;;;;5016280;28;20041;-66
2022/11/03 06:32:24;;;;;;;9.82;2.85;;;10.80;99.90;;;;;;5017854;28;20073;-65
2022/11/03 06:34:54;;;;;;;9.57;2.83;;;10.80;99.90;;;;;;5016312;28;20072;-66
2022/11/03 06:37:19;;;;;;;12.43;3.30;;;10.80;99.90;;;;;;5018043;28;20037;-66
2022/11/03 06:39:46;;;;;;;13.77;3.38;;;10.80;99.90;;;;;;5000913;28;20067;-65
2022/11/03 06:42:18;;;;;;;11.23;3.00;;;10.80;99.90;;;;;;5034505;28;20446;-65
2022/11/03 06:44:47;;;;;;;9.57;3.30;;;10.70;99.90;;;;;;5035239;28;20116;-66
2022/11/03 06:47:27;;;;;;;10.10;3.30;;;10.70;99.90;;;;;;5017468;28;20494;-66
2022/11/03 06:49:55;;;;;;;12.65;3.88;;;10.80;99.90;;;;;;5000489;28;20102;-66
2022/11/03 06:52:32;;;;;;;14.95;4.68;;;10.80;99.90;;;;;;5035138;28;20394;-66
2022/11/03 06:55:34;;;;;;;12.23;2.72;;;10.80;99.90;;;;;;5016682;28;20131;-66
2022/11/03 06:58:14;;;;;;;10.40;3.13;;;10.80;99.90;;;;;;5016729;28;20132;-65
2022/11/03 07:00:40;;;;;;;12.85;3.85;;;10.80;99.90;;;;;;5034785;28;20048;-66
2022/11/03 07:03:09;;;;;;;10.73;3.33;;;10.80;99.90;;;;;;5015978;28;20045;-66
2022/11/03 07:05:35;;;;;;;10.88;3.78;;;10.90;99.90;;;;;;5000561;28;20047;-65
2022/11/03 07:08:18;;;;;;;9.10;2.75;;;10.80;99.90;;;;;;5016878;28;20077;-66
2022/11/03 07:10:44;;;;;;;8.77;3.08;;;10.90;99.90;;;;;;5036503;28;20130;-66
2022/11/03 07:13:17;;;;;;;11.88;3.80;;;10.90;99.90;;;;;;5028564;28;20044;-66
2022/11/03 07:15:44;;;;;;;8.70;2.92;;;10.90;99.90;;;;;;5029043;28;20573;-65
2022/11/03 07:18:26;;;;;;;14.15;3.40;;;10.90;99.90;;;;;;5052173;28;20033;-66
2022/11/03 07:20:53;;;;;;;12.10;3.25;;;11.00;99.90;;;;;;5047904;28;20076;-66
2022/11/03 07:23:23;;;;;;;14.02;3.90;;;11.00;99.90;;;;;;5070695;28;20391;-67
2022/11/03 07:25:53;;;;;;;11.75;3.42;;;11.00;99.90;;;;;;5053262;28;20069;-66
2022/11/03 07:28:21;;;;;;;9.55;3.33;;;11.10;99.90;;;;;;5031779;28;20509;-66
2022/11/03 07:30:47;;;;;;;11.90;3.17;;;11.10;99.90;;;;;;5049582;28;20521;-66
2022/11/03 07:33:19;;;;;;;10.45;3.33;;;11.10;99.90;;;;;;5016193;28;20036;-65
2022/11/03 07:35:48;;;;;;;10.73;2.85;;;11.10;99.90;;;;;;5028157;28;20049;-65
2022/11/03 07:38:18;;;;;;;11.73;3.30;;;11.10;99.90;;;;;;5048732;28;20036;-65
2022/11/03 07:40:44;;;;;;;10.10;3.00;;;11.20;99.90;;;;;;5030729;28;20048;-66
2022/11/03 07:43:27;;;;;;;13.30;3.22;;;11.20;99.90;;;;;;5052135;28;20124;-66
2022/11/03 07:45:54;;;;;;;10.80;3.72;;;11.20;99.90;;;;;;5016182;28;20052;-66
2022/11/03 07:48:32;;;;;;;11.00;3.92;;;11.20;99.90;;;;;;5033655;28;20049;-66
2022/11/03 07:51:31;;;;;;;11.23;3.35;;;11.20;99.90;;;;;;5050438;28;20557;-66
2022/11/03 07:54:02;;;;;;;10.35;3.53;;;11.30;99.90;;;;;;5050950;28;20039;-66
2022/11/03 07:56:34;;;;;;;10.60;3.47;;;11.30;99.90;;;;;;5051616;28;20401;-66
2022/11/03 07:59:11;;;;;;;12.70;3.33;;;11.30;99.90;;;;;;5032653;28;20049;-66
2022/11/03 08:01:41;;;;;;;13.40;3.67;;;11.30;99.90;;;;;;5033211;28;20497;-66
2022/11/03 08:04:10;;;;;;;10.07;2.97;;;11.40;99.90;;;;;;5033336;28;20051;-66
2022/11/03 08:06:36;;;;;;;11.45;3.85;;;11.50;99.90;;;;;;5032040;28;20044;-66
2022/11/03 08:09:02;;;;;;;16.40;3.30;;;11.40;99.90;;;;;;5029692;28;20091;-66
2022/11/03 08:11:28;;;;;;;10.70;4.13;;;11.50;99.90;;;;;;5026615;28;20045;-66
2022/11/03 08:13:54;;;;;;;11.85;3.22;;;11.50;99.90;;;;;;5038217;28;20043;-66
2022/11/03 08:16:20;;;;;;;6.60;3.00;;;11.50;99.90;;;;;;5053205;28;20045;-66
2022/11/03 08:18:45;;;;;;;11.45;3.35;;;11.60;99.90;;;;;;5039375;28;20091;-66
2022/11/03 08:21:12;;;;;;;9.38;3.25;;;11.60;99.90;;;;;;5051480;28;20583;-66
2022/11/03 08:23:38;;;;;;;8.90;2.90;;;11.60;99.90;;;;;;5032455;28;20056;-66
2022/11/03 08:26:04;;;;;;;11.45;3.08;;;11.60;99.90;;;;;;5015633;28;20048;-66
2022/11/03 08:28:30;;;;;;;9.98;3.10;;;11.60;99.90;;;;;;5016639;28;20041;-66
2022/11/03 08:31:00;;;;;;;9.05;3.03;;;11.60;99.90;;;;;;5032610;28;20051;-66
2022/11/03 08:33:27;;;;;;;9.80;3.67;;;11.70;99.90;;;;;;5032192;28;20076;-66
2022/11/03 08:35:53;;;;;;;10.50;3.25;;;11.80;99.90;;;;;;5032027;28;20045;-66
2022/11/03 08:38:19;;;;;;;9.93;3.25;;;11.80;99.90;;;;;;5050199;28;20039;-66
2022/11/03 08:40:44;;;;;;;10.07;3.42;;;11.90;99.90;;;;;;5046181;28;20565;-66
2022/11/03 08:43:10;;;;;;;8.48;3.88;;;11.90;99.90;;;;;;5030724;28;20055;-66
2022/11/03 08:45:36;;;;;;;12.75;4.22;;;11.90;99.90;;;;;;5046356;28;20043;-66
2022/11/03 08:48:02;;;;;;;19.25;3.63;;;11.90;99.90;;;;;;5048001;28;20140;-66
2022/11/03 08:50:27;;;;;;;9.70;3.25;;;11.90;99.90;;;;;;5031667;28;20045;-66
2022/11/03 08:52:53;;;;;;;7.82;3.38;;;12.00;99.90;;;;;;5030278;28;20048;-66
2022/11/03 08:55:19;;;;;;;6.85;2.95;;;12.00;99.90;;;;;;5048369;28;20041;-66
2022/11/03 08:57:46;;;;;;;13.20;3.58;;;12.00;99.90;;;;;;5030606;28;20131;-66
2022/11/03 09:00:12;;;;;;;9.80;3.28;;;12.00;99.90;;;;;;5048707;28;20439;-66
2022/11/03 09:02:38;;;;;;;13.07;3.72;;;12.10;99.90;;;;;;5048296;28;20044;-66
2022/11/03 09:05:04;;;;;;;11.68;3.40;;;12.10;99.90;;;;;;5048931;28;20391;-66
2022/11/03 09:07:30;;;;;;;7.50;2.15;;;12.10;99.90;;;;;;5031825;28;20052;-66
2022/11/03 09:09:56;;;;;;;12.02;3.65;;;12.20;99.90;;;;;;5029963;28;20045;-65
2022/11/03 09:12:22;;;;;;;12.70;3.38;;;12.30;99.90;;;;;;5049095;28;20052;-66
2022/11/03 09:14:47;;;;;;;9.80;2.90;;;12.40;99.90;;;;;;5014260;28;20600;-66
2022/11/03 09:17:13;;;;;;;12.20;3.97;;;12.40;99.90;;;;;;5030211;28;20482;-66
2022/11/03 09:19:39;;;;;;;8.50;2.75;;;12.50;99.90;;;;;;5014017;28;20383;-66
2022/11/03 09:22:04;;;;;;;10.32;3.45;;;12.50;99.90;;;;;;5047811;28;20561;-66
2022/11/03 09:24:30;;;;;;;15.40;3.83;;;12.60;99.90;;;;;;5031100;28;20075;-66
2022/11/03 09:26:55;;;;;;;13.13;4.40;;;12.60;99.90;;;;;;5031029;28;20048;-66
2022/11/03 09:29:21;;;;;;;8.88;3.13;;;12.60;99.90;;;;;;5015412;28;20367;-65
2022/11/03 09:31:47;;;;;;;12.57;3.25;;;12.70;99.90;;;;;;5034031;28;20033;-68
2022/11/03 09:34:13;;;;;;;11.32;3.35;;;12.70;99.90;;;;;;5030905;28;20038;-68
2022/11/03 09:36:39;;;;;;;8.50;3.40;;;12.70;99.90;;;;;;5031323;28;20069;-67
2022/11/03 09:39:04;;;;;;;10.55;3.15;;;12.70;99.90;;;;;;5031898;28;20138;-69
2022/11/03 09:41:31;;;;;;;16.60;3.88;;;12.80;99.90;;;;;;5020005;28;20076;-70
2022/11/03 09:43:57;;;;;;;10.68;3.22;;;12.80;99.90;;;;;;5032710;28;20052;-69
2022/11/03 09:46:24;;;;;;;10.95;3.75;;;12.80;99.90;;;;;;5017733;28;20076;-68
2022/11/03 09:48:50;;;;;;;11.00;3.17;;;12.80;99.90;;;;;;5017293;28;20396;-69
2022/11/03 09:51:20;;;;;;;11.18;3.60;;;12.80;99.90;;;;;;5017106;28;20124;-69
2022/11/03 09:53:47;;;;;;;11.77;3.30;;;12.90;99.90;;;;;;5033799;28;20090;-69
2022/11/03 09:56:15;;;;;;;13.15;2.85;;;12.90;99.90;;;;;;5052256;28;20106;-68
2022/11/03 09:58:41;;;;;;;7.20;2.60;;;12.90;99.90;;;;;;5033163;28;20040;-66
2022/11/03 10:01:10;;;;;;;11.65;3.45;;;13.00;99.90;;;;;;5051909;28;20036;-66
2022/11/03 10:03:37;;;;;;;12.90;2.95;;;13.00;99.90;;;;;;5034729;28;20128;-66
2022/11/03 10:06:04;;;;;;;10.50;3.20;;;13.00;99.90;;;;;;5036892;28;20037;-67
2022/11/03 10:08:32;;;;;;;9.05;2.72;;;13.10;99.90;;;;;;5038255;28;20076;-66
2022/11/03 10:11:00;;;;;;;10.07;2.78;;;13.10;99.90;;;;;;5037768;28;20041;-66
2022/11/03 10:13:32;;;;;;;9.18;2.88;;;13.10;99.90;;;;;;5036641;28;20044;-66
2022/11/03 10:16:00;;;;;;;13.30;2.97;;;13.10;99.90;;;;;;5055215;28;20071;-66
2022/11/03 10:18:27;;;;;;;12.48;3.50;;;13.20;99.90;;;;;;5039458;28;20492;-66
2022/11/03 10:20:54;;;;;;;12.18;3.15;;;13.20;99.90;;;;;;5057335;28;20052;-67
2022/11/03 10:23:19;;;;;;;9.40;2.60;;;13.30;99.90;;;;;;5060471;28;20270;-67
2022/11/03 10:25:46;;;;;;;12.07;3.65;;;13.30;99.90;;;;;;5032173;28;20049;-68
2022/11/03 10:28:21;;;;;;;12.45;3.15;;;13.30;99.90;;;;;;5037351;28;20481;-68
2022/11/03 10:30:48;;;;;;;9.35;3.55;;;13.30;99.90;;;;;;5037262;28;20045;-70
2022/11/03 10:33:34;;;;;;;10.15;3.00;;;13.30;99.90;;;;;;5036735;28;20124;-70
2022/11/03 10:36:19;;;;;;;11.27;3.25;;;13.30;99.90;;;;;;5037299;28;20095;-70
2022/11/03 10:38:46;;;;;;;7.30;3.13;;;13.30;99.90;;;;;;5020598;28;20065;-70
2022/11/03 10:41:17;;;;;;;8.45;2.70;;;13.30;99.90;;;;;;5036027;28;20033;-69
2022/11/03 10:44:04;;;;;;;13.82;3.03;;;13.30;99.90;;;;;;5055501;28;20039;-69
2022/11/03 10:46:31;;;;;;;9.18;2.85;;;13.40;99.90;;;;;;5023071;28;20045;-69
2022/11/03 10:49:12;;;;;;;12.80;2.95;;;13.40;99.90;;;;;;5036363;28;20106;-69
2022/11/03 10:51:39;;;;;;;13.77;2.75;;;13.40;99.90;;;;;;5059709;28;20044;-69
2022/11/03 10:54:09;;;;;;;13.88;3.40;;;13.40;99.90;;;;;;5039160;28;20114;-70
2022/11/03 10:56:35;;;;;;;13.18;3.13;;;13.50;99.90;;;;;;5069779;28;20040;-69
2022/11/03 10:59:02;;;;;;;10.25;2.63;;;13.50;99.90;;;;;;5037100;28;20033;-68
2022/11/03 11:01:27;;;;;;;9.98;3.33;;;13.60;99.90;;;;;;5054566;28;20037;-71
2022/11/03 11:03:54;;;;;;;9.80;2.67;;;13.60;99.90;;;;;;5033218;28;20040;-71
2022/11/03 11:06:24;;;;;;;10.65;2.88;;;13.70;99.90;;;;;;5034906;28;20390;-71
2022/11/03 11:08:56;;;;;;;11.20;3.30;;;13.70;99.90;;;;;;5034236;28;20035;-70
2022/11/03 11:11:23;;;;;;;11.68;2.92;;;13.80;99.90;;;;;;5037719;28;20051;-71
2022/11/03 11:14:21;;;;;;;9.82;2.60;;;13.90;99.90;;;;;;5036732;28;20036;-71
2022/11/03 11:16:53;;;;;;;11.13;3.22;;;13.90;99.90;;;;;;5018147;28;20037;-71
2022/11/03 11:19:21;;;;;;;10.90;3.00;;;14.00;99.90;;;;;;5054837;28;20106;-71
2022/11/03 11:21:46;;;;;;;7.75;2.58;;;14.00;99.90;;;;;;5018489;28;20443;-71
2022/11/03 11:24:13;;;;;;;10.35;3.53;;;14.00;99.90;;;;;;5020003;28;20140;-71
2022/11/03 11:26:39;;;;;;;10.65;3.13;;;14.10;99.90;;;;;;5035115;28;20040;-70
2022/11/03 11:29:08;;;;;;;8.82;3.10;;;14.10;99.90;;;;;;5035063;28;20060;-70
2022/11/03 11:31:35;;;;;;;10.60;3.10;;;14.10;99.90;;;;;;5032666;28;20116;-70
2022/11/03 11:34:09;;;;;;;11.73;3.00;;;14.10;99.90;;;;;;5017077;28;20470;-71
2022/11/03 11:36:40;;;;;;;9.85;2.85;;;14.20;99.90;;;;;;5022321;28;20049;-71
2022/11/03 11:39:09;;;;;;;13.93;3.22;;;14.20;99.90;;;;;;5032070;28;20040;-71
2022/11/03 11:42:12;;;;;;;7.93;2.85;;;14.20;99.90;;;;;;5072841;28;20129;-71
2022/11/03 11:44:52;;;;;;;9.13;2.70;;;14.30;99.90;;;;;;5060932;28;20049;-71
2022/11/03 11:47:22;;;;;;;8.68;2.63;;;14.40;99.90;;;;;;5036748;28;20120;-71
2022/11/03 11:50:09;;;;;;;8.25;2.97;;;14.40;99.90;;;;;;5034854;28;20076;-71
2022/11/03 11:52:49;;;;;;;6.43;2.63;;;14.50;99.90;;;;;;5036102;28;20041;-71
2022/11/03 11:55:22;;;;;;;9.20;2.72;;;14.50;99.90;;;;;;5036407;28;20090;-71
2022/11/03 11:57:47;;;;;;;9.30;3.05;;;14.40;99.90;;;;;;5031489;28;20042;-72
2022/11/03 12:00:25;;;;;;;9.35;2.95;;;14.40;99.90;;;;;;5036076;28;20053;-72
2022/11/03 12:02:52;;;;;;;10.27;3.10;;;14.50;99.90;;;;;;5018005;28;20451;-72
2022/11/03 12:05:21;;;;;;;10.30;2.63;;;14.40;99.90;;;;;;5053409;28;20075;-73
2022/11/03 12:07:47;;;;;;;8.75;2.53;;;14.40;99.90;;;;;;5055606;28;20118;-71
2022/11/03 12:10:13;;;;;;;11.65;2.70;;;14.40;99.90;;;;;;5039321;28;20123;-72
2022/11/03 12:12:38;;;;;;;5.95;2.53;;;14.40;99.90;;;;;;5072894;28;20115;-72
2022/11/03 12:15:04;;;;;;;9.82;2.67;;;14.40;99.90;;;;;;5072297;28;20036;-72
2022/11/03 12:17:32;;;;;;;8.65;2.42;;;14.40;99.90;;;;;;5055521;28;20482;-72
2022/11/03 12:19:58;;;;;;;7.82;2.22;;;14.50;99.90;;;;;;5052634;28;20098;-72
2022/11/03 12:22:24;;;;;;;10.35;2.55;;;14.50;99.90;;;;;;5019033;28;20041;-72
2022/11/03 12:24:54;;;;;;;12.93;3.35;;;14.50;99.90;;;;;;5018805;28;20128;-72
2022/11/03 12:27:41;;;;;;;7.80;2.20;;;14.50;99.90;;;;;;5053210;28;20036;-72
2022/11/03 12:30:15;;;;;;;7.20;2.78;;;14.50;99.90;;;;;;5031888;28;20045;-71
2022/11/03 12:32:41;;;;;;;8.55;2.42;;;14.50;99.90;;;;;;5047237;28;20033;-72
2022/11/03 12:35:08;;;;;;;9.15;2.45;;;14.50;99.90;;;;;;5052932;28;20049;-72
2022/11/03 12:37:34;;;;;;;7.38;2.35;;;14.50;99.90;;;;;;5017392;28;20041;-72
2022/11/03 12:40:00;;;;;;;5.28;2.45;;;14.50;99.90;;;;;;5034633;28;20077;-72
2022/11/03 12:42:26;;;;;;;7.25;2.20;;;14.50;99.90;;;;;;5034684;28;20076;-72
2022/11/03 12:44:52;;;;;;;11.18;2.95;;;14.50;99.90;;;;;;5054211;28;20256;-72
2022/11/03 12:47:19;;;;;;;13.05;2.58;;;14.50;99.90;;;;;;5034972;28;21242;-72
2022/11/03 12:49:45;;;;;;;6.05;2.17;;;14.50;99.90;;;;;;5017849;28;20037;-69
2022/11/03 12:52:10;;;;;;;8.07;3.03;;;14.50;99.90;;;;;;5018860;28;20452;-69
2022/11/03 12:54:36;;;;;;;9.77;2.30;;;14.50;99.90;;;;;;5017534;28;20048;-70
2022/11/03 12:57:01;;;;;;;8.70;2.60;;;14.50;99.90;;;;;;5034582;28;20045;-72
2022/11/03 12:59:28;;;;;;;9.93;2.75;;;14.50;99.90;;;;;;5053145;28;20044;-71
2022/11/03 13:01:53;;;;;;;10.57;2.55;;;14.50;99.90;;;;;;5051796;28;20072;-71
2022/11/03 13:04:19;;;;;;;6.85;2.25;;;14.50;99.90;;;;;;5034984;28;20044;-71
2022/11/03 13:06:45;;;;;;;6.22;2.10;;;14.50;99.90;;;;;;5052187;28;20053;-71
2022/11/03 13:09:11;;;;;;;7.18;2.28;;;14.60;99.90;;;;;;5052096;28;20055;-71
2022/11/03 13:14:20;;;;;;;11.95;3.55;;;14.60;99.90;;;;;;5033780;28;20045;-71
2022/11/03 13:16:46;;;;;;;6.32;3.00;;;14.60;99.90;;;;;;5034426;28;20501;-71